首页
METAR-TAF:

METAR-TAF

机场 :

科克赛德, 比利时

纬度: 51-05N, 经度: 002-39E, 海拔: 4米

当前天气观测

该预报发布于34分钟前的18:25 UTC
风速18节,风向西南
温度 8°C
湿度 81%
气压 1018 hPa
能见度10公里或以上
散云层高于2700英尺
多云层高于3600英尺

METAR: EBFN 181825Z 23018KT 9999 SCT027 BKN036 08/05 Q1018 BLU BLU TEMPO WHT

时间: 19:59 (18:59 UTC)

预报

该预报发布于3小时和18分钟前的15:41 UTC
预报有效从18日的 19点(UTC)到 19日的 07点(UTC)
风速20节,风向西南,有时为30节阵风
能见度10公里或以上
少量云层高于2800英尺
散云层高于3500英尺
短暂存在
从 18日的 19点(UTC)到 18日的 23点(UTC)
风速23节,风向西南,有时为35节阵风
能見度: 6000
多云层高于1500英尺, 塔状积云.
小雨, 小阵雨
几率 30% :
短暂存在
从 18日的 19点(UTC)到 18日的 23点(UTC)
风速26节,风向西转西南,有时为38节阵风
能見度: 4000
多云层高于1200英尺, 塔状积云.
雨, 阵雨
成为
从 18日的 21点(UTC)到 18日的 23点(UTC)
风速23节,风向西,有时为33节阵风
散云层高于1500英尺

TAF: EBFN 181541Z 1819/1907 23020G30KT 9999 FEW028 SCT035 TEMPO 1819/1823 23023G35KT 6000 -RA -SHRA BKN015TCU PROB30 TEMPO 1819/1823 25026G38KT 4000 RA SHRA BKN012TCU BECMG 1821/1823 28023G33KT SCT015

超过4000个机场的气象观测和天气预报(METAR&TAF报告)。

可查询的气象台以黄色和红色小点在地图上表示。

将鼠标移到小点上方,可查看气象台名称。

然后点击查看天气观测和预报。

如需切换地图:点击带黑十字的绿色按钮放大地图;点击带横线的绿色按钮缩小地图;或者点击绿色箭头查看邻近地区的地图。


METAR-TAF: